sensor_id;sensor_type;location;lat;lon;timestamp;P1;durP1;ratioP1;P2;durP2;ratioP2
58360;SDS011;44164;44.954;10.068;2023-04-19T00:00:51;2.95;;;2.20;;
58360;SDS011;44164;44.954;10.068;2023-04-19T00:03:17;2.70;;;2.00;;
58360;SDS011;44164;44.954;10.068;2023-04-19T00:05:43;2.90;;;2.00;;
58360;SDS011;44164;44.954;10.068;2023-04-19T00:08:09;3.15;;;2.08;;
58360;SDS011;44164;44.954;10.068;2023-04-19T00:10:35;2.80;;;1.73;;
58360;SDS011;44164;44.954;10.068;2023-04-19T00:13:02;2.85;;;2.13;;
58360;SDS011;44164;44.954;10.068;2023-04-19T00:15:28;3.55;;;2.22;;
58360;SDS011;44164;44.954;10.068;2023-04-19T00:17:54;2.70;;;1.80;;
58360;SDS011;44164;44.954;10.068;2023-04-19T00:20:21;2.70;;;2.10;;
58360;SDS011;44164;44.954;10.068;2023-04-19T00:22:47;3.58;;;1.90;;
58360;SDS011;44164;44.954;10.068;2023-04-19T00:25:13;3.28;;;2.20;;
58360;SDS011;44164;44.954;10.068;2023-04-19T00:27:39;2.60;;;1.80;;
58360;SDS011;44164;44.954;10.068;2023-04-19T00:30:05;3.63;;;2.22;;
58360;SDS011;44164;44.954;10.068;2023-04-19T00:32:32;2.63;;;1.90;;
58360;SDS011;44164;44.954;10.068;2023-04-19T00:34:58;2.53;;;1.60;;
58360;SDS011;44164;44.954;10.068;2023-04-19T00:37:24;2.13;;;1.50;;
58360;SDS011;44164;44.954;10.068;2023-04-19T00:39:50;3.67;;;2.58;;
58360;SDS011;44164;44.954;10.068;2023-04-19T00:42:16;2.95;;;2.10;;
58360;SDS011;44164;44.954;10.068;2023-04-19T00:44:45;2.97;;;2.00;;
58360;SDS011;44164;44.954;10.068;2023-04-19T00:47:11;2.65;;;2.22;;
58360;SDS011;44164;44.954;10.068;2023-04-19T00:49:39;5.05;;;1.90;;
58360;SDS011;44164;44.954;10.068;2023-04-19T00:52:06;3.05;;;1.75;;
58360;SDS011;44164;44.954;10.068;2023-04-19T00:54:36;2.45;;;1.80;;
58360;SDS011;44164;44.954;10.068;2023-04-19T00:57:02;2.47;;;2.00;;
58360;SDS011;44164;44.954;10.068;2023-04-19T00:59:28;2.25;;;1.70;;
58360;SDS011;44164;44.954;10.068;2023-04-19T01:01:55;2.58;;;2.00;;
58360;SDS011;44164;44.954;10.068;2023-04-19T01:04:21;3.35;;;1.88;;
58360;SDS011;44164;44.954;10.068;2023-04-19T01:06:48;3.60;;;2.28;;
58360;SDS011;44164;44.954;10.068;2023-04-19T01:09:15;2.88;;;2.00;;
58360;SDS011;44164;44.954;10.068;2023-04-19T01:11:41;2.75;;;1.98;;
58360;SDS011;44164;44.954;10.068;2023-04-19T01:14:07;4.07;;;2.00;;
58360;SDS011;44164;44.954;10.068;2023-04-19T01:16:33;3.45;;;2.00;;
58360;SDS011;44164;44.954;10.068;2023-04-19T01:19:01;2.28;;;1.67;;
58360;SDS011;44164;44.954;10.068;2023-04-19T01:21:27;5.15;;;2.25;;
58360;SDS011;44164;44.954;10.068;2023-04-19T01:23:55;2.55;;;1.70;;
58360;SDS011;44164;44.954;10.068;2023-04-19T01:26:21;3.05;;;1.90;;
58360;SDS011;44164;44.954;10.068;2023-04-19T01:28:47;3.38;;;2.10;;
58360;SDS011;44164;44.954;10.068;2023-04-19T01:31:15;2.95;;;2.15;;
58360;SDS011;44164;44.954;10.068;2023-04-19T01:33:41;2.50;;;1.70;;
58360;SDS011;44164;44.954;10.068;2023-04-19T01:36:08;5.95;;;2.53;;
58360;SDS011;44164;44.954;10.068;2023-04-19T01:38:34;3.10;;;1.98;;
58360;SDS011;44164;44.954;10.068;2023-04-19T01:41:00;2.53;;;2.15;;
58360;SDS011;44164;44.954;10.068;2023-04-19T01:43:27;3.40;;;2.17;;
58360;SDS011;44164;44.954;10.068;2023-04-19T01:45:53;2.80;;;2.15;;
58360;SDS011;44164;44.954;10.068;2023-04-19T01:48:19;3.97;;;2.00;;
58360;SDS011;44164;44.954;10.068;2023-04-19T01:50:45;3.15;;;2.13;;
58360;SDS011;44164;44.954;10.068;2023-04-19T01:53:11;2.67;;;1.90;;
58360;SDS011;44164;44.954;10.068;2023-04-19T01:55:38;2.58;;;1.90;;
58360;SDS011;44164;44.954;10.068;2023-04-19T01:58:04;3.22;;;1.65;;
58360;SDS011;44164;44.954;10.068;2023-04-19T02:00:30;2.20;;;1.85;;
58360;SDS011;44164;44.954;10.068;2023-04-19T02:02:56;2.83;;;1.92;;
58360;SDS011;44164;44.954;10.068;2023-04-19T02:05:22;2.63;;;1.80;;
58360;SDS011;44164;44.954;10.068;2023-04-19T02:07:49;3.85;;;1.92;;
58360;SDS011;44164;44.954;10.068;2023-04-19T02:10:15;3.22;;;1.90;;
58360;SDS011;44164;44.954;10.068;2023-04-19T02:12:41;2.33;;;1.63;;
58360;SDS011;44164;44.954;10.068;2023-04-19T02:15:07;2.28;;;1.65;;
58360;SDS011;44164;44.954;10.068;2023-04-19T02:17:34;2.65;;;2.08;;
58360;SDS011;44164;44.954;10.068;2023-04-19T02:20:00;2.67;;;1.85;;
58360;SDS011;44164;44.954;10.068;2023-04-19T02:22:27;2.47;;;1.98;;
58360;SDS011;44164;44.954;10.068;2023-04-19T02:24:53;3.30;;;1.75;;
58360;SDS011;44164;44.954;10.068;2023-04-19T02:27:24;2.08;;;1.65;;
58360;SDS011;44164;44.954;10.068;2023-04-19T02:29:51;3.42;;;2.00;;
58360;SDS011;44164;44.954;10.068;2023-04-19T02:32:17;2.33;;;1.88;;
58360;SDS011;44164;44.954;10.068;2023-04-19T02:34:43;3.28;;;1.73;;
58360;SDS011;44164;44.954;10.068;2023-04-19T02:37:09;3.17;;;2.17;;
58360;SDS011;44164;44.954;10.068;2023-04-19T02:39:35;3.25;;;1.90;;
58360;SDS011;44164;44.954;10.068;2023-04-19T02:42:01;3.00;;;2.22;;
58360;SDS011;44164;44.954;10.068;2023-04-19T02:44:27;2.60;;;1.90;;
58360;SDS011;44164;44.954;10.068;2023-04-19T02:46:54;2.45;;;1.85;;
58360;SDS011;44164;44.954;10.068;2023-04-19T02:49:20;2.58;;;1.80;;
58360;SDS011;44164;44.954;10.068;2023-04-19T02:51:46;2.67;;;1.70;;
58360;SDS011;44164;44.954;10.068;2023-04-19T02:54:13;2.72;;;1.90;;
58360;SDS011;44164;44.954;10.068;2023-04-19T02:56:42;2.50;;;1.70;;
58360;SDS011;44164;44.954;10.068;2023-04-19T02:59:08;2.53;;;1.80;;
58360;SDS011;44164;44.954;10.068;2023-04-19T03:01:34;2.92;;;2.30;;
58360;SDS011;44164;44.954;10.068;2023-04-19T03:04:04;4.90;;;2.35;;
58360;SDS011;44164;44.954;10.068;2023-04-19T03:06:30;3.08;;;2.35;;
58360;SDS011;44164;44.954;10.068;2023-04-19T03:08:56;2.45;;;1.88;;
58360;SDS011;44164;44.954;10.068;2023-04-19T03:11:23;2.60;;;2.10;;
58360;SDS011;44164;44.954;10.068;2023-04-19T03:13:49;2.90;;;1.75;;
58360;SDS011;44164;44.954;10.068;2023-04-19T03:16:15;2.90;;;1.83;;
58360;SDS011;44164;44.954;10.068;2023-04-19T03:18:42;2.83;;;1.90;;
58360;SDS011;44164;44.954;10.068;2023-04-19T03:21:09;2.72;;;1.70;;
58360;SDS011;44164;44.954;10.068;2023-04-19T03:23:45;3.08;;;1.75;;
58360;SDS011;44164;44.954;10.068;2023-04-19T03:26:13;3.72;;;1.70;;
58360;SDS011;44164;44.954;10.068;2023-04-19T03:28:45;2.30;;;1.55;;
58360;SDS011;44164;44.954;10.068;2023-04-19T03:31:46;2.67;;;1.90;;
58360;SDS011;44164;44.954;10.068;2023-04-19T03:34:13;2.50;;;1.67;;
58360;SDS011;44164;44.954;10.068;2023-04-19T03:36:43;3.20;;;1.98;;
58360;SDS011;44164;44.954;10.068;2023-04-19T03:39:09;2.60;;;1.60;;
58360;SDS011;44164;44.954;10.068;2023-04-19T03:41:38;4.05;;;1.50;;
58360;SDS011;44164;44.954;10.068;2023-04-19T03:44:30;2.95;;;2.00;;
58360;SDS011;44164;44.954;10.068;2023-04-19T03:46:57;3.10;;;2.00;;
58360;SDS011;44164;44.954;10.068;2023-04-19T03:49:27;4.82;;;2.03;;
58360;SDS011;44164;44.954;10.068;2023-04-19T03:52:02;3.20;;;1.80;;
58360;SDS011;44164;44.954;10.068;2023-04-19T03:54:28;2.95;;;2.25;;
58360;SDS011;44164;44.954;10.068;2023-04-19T03:56:54;3.90;;;2.40;;
58360;SDS011;44164;44.954;10.068;2023-04-19T03:59:22;3.75;;;2.00;;
58360;SDS011;44164;44.954;10.068;2023-04-19T04:01:48;3.45;;;2.00;;
58360;SDS011;44164;44.954;10.068;2023-04-19T04:04:14;3.05;;;1.75;;
58360;SDS011;44164;44.954;10.068;2023-04-19T04:06:40;3.00;;;1.80;;
58360;SDS011;44164;44.954;10.068;2023-04-19T04:09:06;4.28;;;2.10;;
58360;SDS011;44164;44.954;10.068;2023-04-19T04:11:33;3.83;;;2.50;;
58360;SDS011;44164;44.954;10.068;2023-04-19T04:13:59;2.60;;;1.77;;
58360;SDS011;44164;44.954;10.068;2023-04-19T04:16:28;3.80;;;1.88;;
58360;SDS011;44164;44.954;10.068;2023-04-19T04:18:55;3.08;;;1.90;;
58360;SDS011;44164;44.954;10.068;2023-04-19T04:21:24;5.13;;;2.42;;
58360;SDS011;44164;44.954;10.068;2023-04-19T04:23:52;4.35;;;2.40;;
58360;SDS011;44164;44.954;10.068;2023-04-19T04:26:27;3.83;;;2.05;;
58360;SDS011;44164;44.954;10.068;2023-04-19T04:29:15;3.17;;;1.80;;
58360;SDS011;44164;44.954;10.068;2023-04-19T04:31:42;6.32;;;2.38;;
58360;SDS011;44164;44.954;10.068;2023-04-19T04:34:09;3.67;;;1.95;;
58360;SDS011;44164;44.954;10.068;2023-04-19T04:36:42;3.20;;;1.98;;
58360;SDS011;44164;44.954;10.068;2023-04-19T04:39:09;3.15;;;1.83;;
58360;SDS011;44164;44.954;10.068;2023-04-19T04:41:36;3.83;;;1.90;;
58360;SDS011;44164;44.954;10.068;2023-04-19T04:44:05;4.20;;;2.10;;
58360;SDS011;44164;44.954;10.068;2023-04-19T04:46:34;3.63;;;2.05;;
58360;SDS011;44164;44.954;10.068;2023-04-19T04:49:01;4.93;;;2.53;;
58360;SDS011;44164;44.954;10.068;2023-04-19T04:51:27;3.95;;;2.03;;
58360;SDS011;44164;44.954;10.068;2023-04-19T04:53:55;5.63;;;2.45;;
58360;SDS011;44164;44.954;10.068;2023-04-19T04:56:22;3.93;;;2.60;;
58360;SDS011;44164;44.954;10.068;2023-04-19T04:58:48;3.15;;;1.98;;
58360;SDS011;44164;44.954;10.068;2023-04-19T05:01:22;3.95;;;2.10;;
58360;SDS011;44164;44.954;10.068;2023-04-19T05:03:50;3.17;;;2.10;;
58360;SDS011;44164;44.954;10.068;2023-04-19T05:06:18;2.58;;;1.90;;
58360;SDS011;44164;44.954;10.068;2023-04-19T05:08:45;3.78;;;1.92;;
58360;SDS011;44164;44.954;10.068;2023-04-19T05:11:16;3.35;;;2.00;;
58360;SDS011;44164;44.954;10.068;2023-04-19T05:13:43;4.05;;;2.17;;
58360;SDS011;44164;44.954;10.068;2023-04-19T05:16:10;3.65;;;1.80;;
58360;SDS011;44164;44.954;10.068;2023-04-19T05:18:37;4.43;;;2.03;;
58360;SDS011;44164;44.954;10.068;2023-04-19T05:21:04;4.70;;;2.30;;
58360;SDS011;44164;44.954;10.068;2023-04-19T05:23:33;3.50;;;2.00;;
58360;SDS011;44164;44.954;10.068;2023-04-19T05:25:59;8.52;;;2.15;;
58360;SDS011;44164;44.954;10.068;2023-04-19T05:28:27;4.35;;;1.90;;
58360;SDS011;44164;44.954;10.068;2023-04-19T05:33:38;3.10;;;1.90;;
58360;SDS011;44164;44.954;10.068;2023-04-19T05:36:04;4.50;;;2.15;;
58360;SDS011;44164;44.954;10.068;2023-04-19T05:38:30;6.95;;;2.10;;
58360;SDS011;44164;44.954;10.068;2023-04-19T05:41:01;4.20;;;2.85;;
58360;SDS011;44164;44.954;10.068;2023-04-19T05:43:28;3.77;;;2.20;;
58360;SDS011;44164;44.954;10.068;2023-04-19T05:45:54;5.80;;;2.42;;
58360;SDS011;44164;44.954;10.068;2023-04-19T05:48:20;6.68;;;2.88;;
58360;SDS011;44164;44.954;10.068;2023-04-19T05:51:04;7.50;;;2.90;;
58360;SDS011;44164;44.954;10.068;2023-04-19T05:53:44;5.88;;;2.28;;
58360;SDS011;44164;44.954;10.068;2023-04-19T05:56:11;5.97;;;2.63;;
58360;SDS011;44164;44.954;10.068;2023-04-19T05:58:37;5.00;;;2.08;;
58360;SDS011;44164;44.954;10.068;2023-04-19T06:01:03;4.20;;;1.90;;
58360;SDS011;44164;44.954;10.068;2023-04-19T06:03:29;5.68;;;2.20;;
58360;SDS011;44164;44.954;10.068;2023-04-19T06:05:55;4.57;;;2.20;;
58360;SDS011;44164;44.954;10.068;2023-04-19T06:08:23;4.50;;;2.25;;
58360;SDS011;44164;44.954;10.068;2023-04-19T06:10:49;7.10;;;2.38;;
58360;SDS011;44164;44.954;10.068;2023-04-19T06:13:15;4.05;;;2.40;;
58360;SDS011;44164;44.954;10.068;2023-04-19T06:15:41;7.55;;;2.13;;
58360;SDS011;44164;44.954;10.068;2023-04-19T06:18:07;3.47;;;2.00;;
58360;SDS011;44164;44.954;10.068;2023-04-19T06:20:35;3.65;;;2.08;;
58360;SDS011;44164;44.954;10.068;2023-04-19T06:23:02;5.15;;;2.60;;
58360;SDS011;44164;44.954;10.068;2023-04-19T06:25:28;3.97;;;2.10;;
58360;SDS011;44164;44.954;10.068;2023-04-19T06:27:54;4.78;;;2.05;;
58360;SDS011;44164;44.954;10.068;2023-04-19T06:30:20;5.78;;;2.78;;
58360;SDS011;44164;44.954;10.068;2023-04-19T06:32:46;5.40;;;2.10;;
58360;SDS011;44164;44.954;10.068;2023-04-19T06:35:12;9.85;;;2.50;;
58360;SDS011;44164;44.954;10.068;2023-04-19T06:37:39;4.57;;;2.42;;
58360;SDS011;44164;44.954;10.068;2023-04-19T06:40:05;6.10;;;1.77;;
58360;SDS011;44164;44.954;10.068;2023-04-19T06:42:33;4.70;;;2.10;;
58360;SDS011;44164;44.954;10.068;2023-04-19T06:45:00;2.80;;;1.83;;
58360;SDS011;44164;44.954;10.068;2023-04-19T06:47:28;5.22;;;2.38;;
58360;SDS011;44164;44.954;10.068;2023-04-19T06:49:55;4.22;;;1.90;;
58360;SDS011;44164;44.954;10.068;2023-04-19T06:52:21;3.85;;;2.28;;
58360;SDS011;44164;44.954;10.068;2023-04-19T06:54:48;4.25;;;2.20;;
58360;SDS011;44164;44.954;10.068;2023-04-19T06:57:15;4.20;;;2.15;;
58360;SDS011;44164;44.954;10.068;2023-04-19T06:59:41;4.57;;;1.88;;
58360;SDS011;44164;44.954;10.068;2023-04-19T07:02:07;7.82;;;2.15;;
58360;SDS011;44164;44.954;10.068;2023-04-19T07:04:34;3.67;;;2.00;;
58360;SDS011;44164;44.954;10.068;2023-04-19T07:07:02;2.50;;;1.92;;
58360;SDS011;44164;44.954;10.068;2023-04-19T07:09:28;6.55;;;2.05;;
58360;SDS011;44164;44.954;10.068;2023-04-19T07:11:54;4.32;;;2.30;;
58360;SDS011;44164;44.954;10.068;2023-04-19T07:14:20;6.57;;;1.98;;
58360;SDS011;44164;44.954;10.068;2023-04-19T07:16:48;4.38;;;1.88;;
58360;SDS011;44164;44.954;10.068;2023-04-19T07:19:14;3.63;;;1.77;;
58360;SDS011;44164;44.954;10.068;2023-04-19T07:21:40;4.32;;;2.20;;
58360;SDS011;44164;44.954;10.068;2023-04-19T07:24:06;2.72;;;1.85;;
58360;SDS011;44164;44.954;10.068;2023-04-19T07:26:33;4.50;;;2.10;;
58360;SDS011;44164;44.954;10.068;2023-04-19T07:28:59;3.10;;;1.88;;
58360;SDS011;44164;44.954;10.068;2023-04-19T07:31:26;4.03;;;2.42;;
58360;SDS011;44164;44.954;10.068;2023-04-19T07:33:52;3.35;;;1.98;;
58360;SDS011;44164;44.954;10.068;2023-04-19T07:36:19;3.20;;;1.90;;
58360;SDS011;44164;44.954;10.068;2023-04-19T07:38:46;2.92;;;2.03;;
58360;SDS011;44164;44.954;10.068;2023-04-19T07:41:12;3.75;;;1.73;;
58360;SDS011;44164;44.954;10.068;2023-04-19T07:43:38;4.75;;;2.00;;
58360;SDS011;44164;44.954;10.068;2023-04-19T07:46:08;4.03;;;2.50;;
58360;SDS011;44164;44.954;10.068;2023-04-19T07:48:35;3.47;;;2.03;;
58360;SDS011;44164;44.954;10.068;2023-04-19T07:51:08;4.50;;;1.88;;
58360;SDS011;44164;44.954;10.068;2023-04-19T07:53:39;3.78;;;1.80;;
58360;SDS011;44164;44.954;10.068;2023-04-19T07:56:06;3.42;;;1.95;;
58360;SDS011;44164;44.954;10.068;2023-04-19T07:58:33;2.63;;;1.85;;
58360;SDS011;44164;44.954;10.068;2023-04-19T08:01:00;3.08;;;1.92;;
58360;SDS011;44164;44.954;10.068;2023-04-19T08:03:26;4.43;;;2.08;;
58360;SDS011;44164;44.954;10.068;2023-04-19T08:05:52;3.42;;;1.90;;
58360;SDS011;44164;44.954;10.068;2023-04-19T08:08:18;4.03;;;2.53;;
58360;SDS011;44164;44.954;10.068;2023-04-19T08:10:44;3.85;;;1.90;;
58360;SDS011;44164;44.954;10.068;2023-04-19T08:13:11;3.45;;;1.90;;
58360;SDS011;44164;44.954;10.068;2023-04-19T08:15:37;3.25;;;1.85;;
58360;SDS011;44164;44.954;10.068;2023-04-19T08:18:03;3.08;;;1.63;;
58360;SDS011;44164;44.954;10.068;2023-04-19T08:20:32;2.78;;;1.50;;
58360;SDS011;44164;44.954;10.068;2023-04-19T08:22:58;4.05;;;1.90;;
58360;SDS011;44164;44.954;10.068;2023-04-19T08:25:25;4.43;;;2.00;;
58360;SDS011;44164;44.954;10.068;2023-04-19T08:27:53;4.32;;;1.50;;
58360;SDS011;44164;44.954;10.068;2023-04-19T08:30:20;2.67;;;1.80;;
58360;SDS011;44164;44.954;10.068;2023-04-19T08:32:46;2.90;;;1.90;;
58360;SDS011;44164;44.954;10.068;2023-04-19T08:35:12;3.22;;;1.50;;
58360;SDS011;44164;44.954;10.068;2023-04-19T08:37:38;2.13;;;1.52;;
58360;SDS011;44164;44.954;10.068;2023-04-19T08:40:05;3.50;;;1.80;;
58360;SDS011;44164;44.954;10.068;2023-04-19T08:42:31;4.03;;;2.15;;
58360;SDS011;44164;44.954;10.068;2023-04-19T08:45:02;4.25;;;1.88;;
58360;SDS011;44164;44.954;10.068;2023-04-19T08:47:31;3.60;;;1.80;;
58360;SDS011;44164;44.954;10.068;2023-04-19T08:49:59;5.47;;;1.70;;
58360;SDS011;44164;44.954;10.068;2023-04-19T08:52:26;3.95;;;2.13;;
58360;SDS011;44164;44.954;10.068;2023-04-19T08:54:55;2.72;;;1.73;;
58360;SDS011;44164;44.954;10.068;2023-04-19T08:57:21;3.60;;;1.40;;
58360;SDS011;44164;44.954;10.068;2023-04-19T08:59:48;2.35;;;1.50;;
58360;SDS011;44164;44.954;10.068;2023-04-19T09:02:20;3.15;;;1.50;;
58360;SDS011;44164;44.954;10.068;2023-04-19T09:04:47;2.85;;;1.75;;
58360;SDS011;44164;44.954;10.068;2023-04-19T09:07:23;3.30;;;1.83;;
58360;SDS011;44164;44.954;10.068;2023-04-19T09:12:32;2.45;;;1.55;;
58360;SDS011;44164;44.954;10.068;2023-04-19T09:15:00;5.68;;;1.98;;
58360;SDS011;44164;44.954;10.068;2023-04-19T09:17:28;4.43;;;2.03;;
58360;SDS011;44164;44.954;10.068;2023-04-19T09:19:57;4.25;;;1.33;;
58360;SDS011;44164;44.954;10.068;2023-04-19T09:22:24;2.40;;;1.60;;
58360;SDS011;44164;44.954;10.068;2023-04-19T09:24:50;5.18;;;1.63;;
58360;SDS011;44164;44.954;10.068;2023-04-19T09:27:24;2.83;;;1.30;;
58360;SDS011;44164;44.954;10.068;2023-04-19T09:29:55;2.88;;;1.67;;
58360;SDS011;44164;44.954;10.068;2023-04-19T09:32:22;3.13;;;1.90;;
58360;SDS011;44164;44.954;10.068;2023-04-19T09:34:55;3.42;;;1.88;;
58360;SDS011;44164;44.954;10.068;2023-04-19T09:37:23;3.20;;;1.70;;
58360;SDS011;44164;44.954;10.068;2023-04-19T09:39:49;3.70;;;1.65;;
58360;SDS011;44164;44.954;10.068;2023-04-19T09:44:54;3.88;;;1.70;;
58360;SDS011;44164;44.954;10.068;2023-04-19T09:47:24;2.80;;;1.40;;
58360;SDS011;44164;44.954;10.068;2023-04-19T09:50:07;2.42;;;1.45;;
58360;SDS011;44164;44.954;10.068;2023-04-19T09:52:34;2.97;;;1.90;;
58360;SDS011;44164;44.954;10.068;2023-04-19T09:55:01;3.72;;;1.75;;
58360;SDS011;44164;44.954;10.068;2023-04-19T09:57:29;3.78;;;1.80;;
58360;SDS011;44164;44.954;10.068;2023-04-19T10:00:00;2.90;;;1.73;;
58360;SDS011;44164;44.954;10.068;2023-04-19T10:02:29;3.63;;;1.65;;
58360;SDS011;44164;44.954;10.068;2023-04-19T10:04:59;2.30;;;1.40;;
58360;SDS011;44164;44.954;10.068;2023-04-19T10:07:25;2.38;;;1.35;;
58360;SDS011;44164;44.954;10.068;2023-04-19T10:09:55;2.50;;;1.40;;
58360;SDS011;44164;44.954;10.068;2023-04-19T10:12:23;1.90;;;1.27;;
58360;SDS011;44164;44.954;10.068;2023-04-19T10:14:55;3.25;;;1.75;;
58360;SDS011;44164;44.954;10.068;2023-04-19T10:17:22;3.75;;;1.70;;
58360;SDS011;44164;44.954;10.068;2023-04-19T10:19:51;2.85;;;1.95;;
58360;SDS011;44164;44.954;10.068;2023-04-19T10:22:22;2.70;;;1.27;;
58360;SDS011;44164;44.954;10.068;2023-04-19T10:27:41;2.67;;;1.50;;
58360;SDS011;44164;44.954;10.068;2023-04-19T10:30:18;3.35;;;1.40;;
58360;SDS011;44164;44.954;10.068;2023-04-19T10:32:45;3.22;;;1.50;;
58360;SDS011;44164;44.954;10.068;2023-04-19T10:43:26;2.67;;;1.42;;
58360;SDS011;44164;44.954;10.068;2023-04-19T10:45:54;2.10;;;1.45;;
58360;SDS011;44164;44.954;10.068;2023-04-19T10:53:41;2.70;;;1.45;;
58360;SDS011;44164;44.954;10.068;2023-04-19T10:56:15;2.58;;;1.58;;
58360;SDS011;44164;44.954;10.068;2023-04-19T11:01:37;2.50;;;1.10;;
58360;SDS011;44164;44.954;10.068;2023-04-19T11:06:57;3.97;;;1.20;;
58360;SDS011;44164;44.954;10.068;2023-04-19T11:17:16;1.58;;;1.05;;
58360;SDS011;44164;44.954;10.068;2023-04-19T11:19:53;2.55;;;1.50;;
58360;SDS011;44164;44.954;10.068;2023-04-19T11:22:24;2.58;;;1.48;;
58360;SDS011;44164;44.954;10.068;2023-04-19T11:25:03;1.70;;;1.20;;
58360;SDS011;44164;44.954;10.068;2023-04-19T11:27:33;2.17;;;1.13;;
58360;SDS011;44164;44.954;10.068;2023-04-19T11:30:02;2.05;;;1.35;;
58360;SDS011;44164;44.954;10.068;2023-04-19T11:32:30;2.78;;;1.52;;
58360;SDS011;44164;44.954;10.068;2023-04-19T11:34:56;2.17;;;1.23;;
58360;SDS011;44164;44.954;10.068;2023-04-19T11:37:22;7.55;;;1.48;;
58360;SDS011;44164;44.954;10.068;2023-04-19T11:39:49;3.03;;;1.45;;
58360;SDS011;44164;44.954;10.068;2023-04-19T11:42:18;1.52;;;1.00;;
58360;SDS011;44164;44.954;10.068;2023-04-19T11:44:54;2.60;;;1.33;;
58360;SDS011;44164;44.954;10.068;2023-04-19T11:47:22;2.40;;;1.45;;
58360;SDS011;44164;44.954;10.068;2023-04-19T11:49:48;2.50;;;1.38;;
58360;SDS011;44164;44.954;10.068;2023-04-19T11:52:24;3.58;;;1.23;;
58360;SDS011;44164;44.954;10.068;2023-04-19T11:54:51;2.35;;;1.33;;
58360;SDS011;44164;44.954;10.068;2023-04-19T11:57:29;4.82;;;1.63;;
58360;SDS011;44164;44.954;10.068;2023-04-19T12:00:06;4.07;;;1.30;;
58360;SDS011;44164;44.954;10.068;2023-04-19T12:02:41;3.03;;;1.63;;
58360;SDS011;44164;44.954;10.068;2023-04-19T12:05:09;2.22;;;1.45;;
58360;SDS011;44164;44.954;10.068;2023-04-19T12:07:59;2.95;;;1.42;;
58360;SDS011;44164;44.954;10.068;2023-04-19T12:10:29;2.30;;;1.48;;
58360;SDS011;44164;44.954;10.068;2023-04-19T12:12:56;2.45;;;1.45;;
58360;SDS011;44164;44.954;10.068;2023-04-19T12:15:22;2.90;;;1.27;;
58360;SDS011;44164;44.954;10.068;2023-04-19T12:17:55;4.50;;;1.40;;
58360;SDS011;44164;44.954;10.068;2023-04-19T12:20:32;2.33;;;1.30;;
58360;SDS011;44164;44.954;10.068;2023-04-19T12:22:59;2.40;;;1.43;;
58360;SDS011;44164;44.954;10.068;2023-04-19T12:25:32;3.55;;;1.50;;
58360;SDS011;44164;44.954;10.068;2023-04-19T12:27:59;4.22;;;1.55;;
58360;SDS011;44164;44.954;10.068;2023-04-19T12:30:27;4.10;;;1.73;;
58360;SDS011;44164;44.954;10.068;2023-04-19T12:32:53;2.63;;;1.40;;
58360;SDS011;44164;44.954;10.068;2023-04-19T12:35:24;2.05;;;1.30;;
58360;SDS011;44164;44.954;10.068;2023-04-19T12:37:51;2.78;;;1.50;;
58360;SDS011;44164;44.954;10.068;2023-04-19T12:40:22;3.70;;;1.20;;
58360;SDS011;44164;44.954;10.068;2023-04-19T12:42:48;2.25;;;1.30;;
58360;SDS011;44164;44.954;10.068;2023-04-19T12:45:15;2.35;;;1.38;;
58360;SDS011;44164;44.954;10.068;2023-04-19T12:47:41;1.77;;;1.05;;
58360;SDS011;44164;44.954;10.068;2023-04-19T12:50:08;2.25;;;1.25;;
58360;SDS011;44164;44.954;10.068;2023-04-19T12:52:34;4.57;;;1.38;;
58360;SDS011;44164;44.954;10.068;2023-04-19T12:55:00;2.78;;;1.00;;
58360;SDS011;44164;44.954;10.068;2023-04-19T12:57:27;2.67;;;1.20;;
58360;SDS011;44164;44.954;10.068;2023-04-19T12:59:53;2.03;;;1.20;;
58360;SDS011;44164;44.954;10.068;2023-04-19T13:02:19;2.47;;;1.30;;
58360;SDS011;44164;44.954;10.068;2023-04-19T13:04:45;3.83;;;1.38;;
58360;SDS011;44164;44.954;10.068;2023-04-19T13:07:11;3.13;;;1.23;;
58360;SDS011;44164;44.954;10.068;2023-04-19T13:09:37;6.05;;;1.55;;
58360;SDS011;44164;44.954;10.068;2023-04-19T13:12:04;2.15;;;1.20;;
58360;SDS011;44164;44.954;10.068;2023-04-19T13:14:30;2.20;;;1.40;;
58360;SDS011;44164;44.954;10.068;2023-04-19T13:16:56;4.45;;;1.40;;
58360;SDS011;44164;44.954;10.068;2023-04-19T13:19:23;2.70;;;1.00;;
58360;SDS011;44164;44.954;10.068;2023-04-19T13:21:49;2.22;;;1.35;;
58360;SDS011;44164;44.954;10.068;2023-04-19T13:24:15;1.95;;;1.15;;
58360;SDS011;44164;44.954;10.068;2023-04-19T13:26:41;1.73;;;0.90;;
58360;SDS011;44164;44.954;10.068;2023-04-19T13:29:07;1.98;;;1.20;;
58360;SDS011;44164;44.954;10.068;2023-04-19T13:31:33;2.30;;;1.35;;
58360;SDS011;44164;44.954;10.068;2023-04-19T13:33:59;19.80;;;1.45;;
58360;SDS011;44164;44.954;10.068;2023-04-19T13:36:26;4.32;;;1.20;;
58360;SDS011;44164;44.954;10.068;2023-04-19T13:38:55;2.75;;;1.30;;
58360;SDS011;44164;44.954;10.068;2023-04-19T13:41:22;4.90;;;1.35;;
58360;SDS011;44164;44.954;10.068;2023-04-19T13:43:48;3.10;;;1.20;;
58360;SDS011;44164;44.954;10.068;2023-04-19T13:46:14;1.90;;;1.15;;
58360;SDS011;44164;44.954;10.068;2023-04-19T13:48:40;2.63;;;1.35;;
58360;SDS011;44164;44.954;10.068;2023-04-19T13:51:06;2.95;;;1.38;;
58360;SDS011;44164;44.954;10.068;2023-04-19T13:53:32;6.75;;;1.20;;
58360;SDS011;44164;44.954;10.068;2023-04-19T13:55:58;2.55;;;1.30;;
58360;SDS011;44164;44.954;10.068;2023-04-19T13:58:24;1.85;;;1.30;;
58360;SDS011;44164;44.954;10.068;2023-04-19T14:00:51;4.00;;;1.30;;
58360;SDS011;44164;44.954;10.068;2023-04-19T14:03:18;3.70;;;1.30;;
58360;SDS011;44164;44.954;10.068;2023-04-19T14:05:44;2.00;;;1.23;;
58360;SDS011;44164;44.954;10.068;2023-04-19T14:08:10;1.77;;;1.00;;
58360;SDS011;44164;44.954;10.068;2023-04-19T14:10:36;2.53;;;1.27;;
58360;SDS011;44164;44.954;10.068;2023-04-19T14:13:03;2.47;;;1.33;;
58360;SDS011;44164;44.954;10.068;2023-04-19T14:15:29;2.30;;;1.30;;
58360;SDS011;44164;44.954;10.068;2023-04-19T14:17:56;2.00;;;1.20;;
58360;SDS011;44164;44.954;10.068;2023-04-19T14:20:22;3.30;;;1.65;;
58360;SDS011;44164;44.954;10.068;2023-04-19T14:22:48;3.67;;;1.33;;
58360;SDS011;44164;44.954;10.068;2023-04-19T14:25:14;2.78;;;1.42;;
58360;SDS011;44164;44.954;10.068;2023-04-19T14:27:42;3.45;;;1.38;;
58360;SDS011;44164;44.954;10.068;2023-04-19T14:30:09;2.90;;;1.40;;
58360;SDS011;44164;44.954;10.068;2023-04-19T14:32:35;1.77;;;1.15;;
58360;SDS011;44164;44.954;10.068;2023-04-19T14:35:01;2.58;;;1.55;;
58360;SDS011;44164;44.954;10.068;2023-04-19T14:37:28;3.10;;;1.48;;
58360;SDS011;44164;44.954;10.068;2023-04-19T14:39:54;2.58;;;1.63;;
58360;SDS011;44164;44.954;10.068;2023-04-19T14:42:20;2.42;;;1.52;;
58360;SDS011;44164;44.954;10.068;2023-04-19T14:44:46;2.75;;;1.50;;
58360;SDS011;44164;44.954;10.068;2023-04-19T14:47:14;3.08;;;1.65;;
58360;SDS011;44164;44.954;10.068;2023-04-19T14:49:40;2.20;;;1.35;;
58360;SDS011;44164;44.954;10.068;2023-04-19T14:52:06;2.53;;;1.17;;
58360;SDS011;44164;44.954;10.068;2023-04-19T14:54:32;2.97;;;1.50;;
58360;SDS011;44164;44.954;10.068;2023-04-19T14:56:58;2.33;;;1.45;;
58360;SDS011;44164;44.954;10.068;2023-04-19T14:59:26;2.42;;;1.20;;
58360;SDS011;44164;44.954;10.068;2023-04-19T15:01:52;2.40;;;1.15;;
58360;SDS011;44164;44.954;10.068;2023-04-19T15:04:18;2.65;;;1.30;;
58360;SDS011;44164;44.954;10.068;2023-04-19T15:06:44;3.22;;;1.20;;
58360;SDS011;44164;44.954;10.068;2023-04-19T15:09:10;2.35;;;1.30;;
58360;SDS011;44164;44.954;10.068;2023-04-19T15:11:37;3.50;;;1.33;;
58360;SDS011;44164;44.954;10.068;2023-04-19T15:14:03;3.00;;;1.52;;